sensor_id;sensor_type;location;lat;lon;timestamp;P1;durP1;ratioP1;P2;durP2;ratioP2
11453;SDS011;5783;55.174;61.310;2023-05-16T00:00:47;13.40;;;11.77;;
11453;SDS011;5783;55.174;61.310;2023-05-16T00:03:18;13.20;;;11.80;;
11453;SDS011;5783;55.174;61.310;2023-05-16T00:05:47;13.37;;;11.50;;
11453;SDS011;5783;55.174;61.310;2023-05-16T00:08:16;12.47;;;11.17;;
11453;SDS011;5783;55.174;61.310;2023-05-16T00:10:45;13.20;;;11.80;;
11453;SDS011;5783;55.174;61.310;2023-05-16T00:13:15;13.00;;;11.60;;
11453;SDS011;5783;55.174;61.310;2023-05-16T00:15:45;13.73;;;12.00;;
11453;SDS011;5783;55.174;61.310;2023-05-16T00:18:15;12.73;;;11.13;;
11453;SDS011;5783;55.174;61.310;2023-05-16T00:20:44;12.47;;;10.70;;
11453;SDS011;5783;55.174;61.310;2023-05-16T00:23:14;12.37;;;11.07;;
11453;SDS011;5783;55.174;61.310;2023-05-16T00:25:43;12.13;;;10.93;;
11453;SDS011;5783;55.174;61.310;2023-05-16T00:28:12;12.93;;;11.13;;
11453;SDS011;5783;55.174;61.310;2023-05-16T00:30:42;11.60;;;10.37;;
11453;SDS011;5783;55.174;61.310;2023-05-16T00:33:11;12.23;;;10.70;;
11453;SDS011;5783;55.174;61.310;2023-05-16T00:35:40;12.47;;;10.53;;
11453;SDS011;5783;55.174;61.310;2023-05-16T00:38:09;11.57;;;10.37;;
11453;SDS011;5783;55.174;61.310;2023-05-16T00:40:39;11.93;;;10.50;;
11453;SDS011;5783;55.174;61.310;2023-05-16T00:43:08;10.77;;;9.63;;
11453;SDS011;5783;55.174;61.310;2023-05-16T00:45:37;10.87;;;9.77;;
11453;SDS011;5783;55.174;61.310;2023-05-16T00:48:06;10.63;;;9.53;;
11453;SDS011;5783;55.174;61.310;2023-05-16T00:50:36;11.37;;;9.70;;
11453;SDS011;5783;55.174;61.310;2023-05-16T00:53:06;11.40;;;9.63;;
11453;SDS011;5783;55.174;61.310;2023-05-16T00:55:35;10.70;;;9.60;;
11453;SDS011;5783;55.174;61.310;2023-05-16T00:58:05;10.57;;;9.47;;
11453;SDS011;5783;55.174;61.310;2023-05-16T01:00:35;11.03;;;8.80;;
11453;SDS011;5783;55.174;61.310;2023-05-16T01:03:04;10.20;;;9.20;;
11453;SDS011;5783;55.174;61.310;2023-05-16T01:05:35;10.33;;;9.23;;
11453;SDS011;5783;55.174;61.310;2023-05-16T01:08:04;11.00;;;9.53;;
11453;SDS011;5783;55.174;61.310;2023-05-16T01:13:08;10.90;;;8.93;;
11453;SDS011;5783;55.174;61.310;2023-05-16T01:27:19;10.20;;;8.57;;
11453;SDS011;5783;55.174;61.310;2023-05-16T01:29:54;9.77;;;8.77;;
11453;SDS011;5783;55.174;61.310;2023-05-16T01:32:41;9.20;;;8.27;;
11453;SDS011;5783;55.174;61.310;2023-05-16T01:35:12;8.90;;;8.00;;
11453;SDS011;5783;55.174;61.310;2023-05-16T01:43:42;9.17;;;7.67;;
11453;SDS011;5783;55.174;61.310;2023-05-16T01:46:14;8.60;;;7.70;;
11453;SDS011;5783;55.174;61.310;2023-05-16T01:51:37;8.97;;;7.33;;
11453;SDS011;5783;55.174;61.310;2023-05-16T01:54:10;8.23;;;7.43;;
11453;SDS011;5783;55.174;61.310;2023-05-16T01:56:40;8.67;;;7.47;;
11453;SDS011;5783;55.174;61.310;2023-05-16T01:59:12;8.57;;;7.27;;
11453;SDS011;5783;55.174;61.310;2023-05-16T02:01:43;8.03;;;7.23;;
11453;SDS011;5783;55.174;61.310;2023-05-16T02:04:12;8.00;;;7.20;;
11453;SDS011;5783;55.174;61.310;2023-05-16T02:06:41;7.97;;;7.17;;
11453;SDS011;5783;55.174;61.310;2023-05-16T02:09:11;9.10;;;7.30;;
11453;SDS011;5783;55.174;61.310;2023-05-16T02:11:40;9.13;;;7.00;;
11453;SDS011;5783;55.174;61.310;2023-05-16T02:14:09;9.50;;;7.27;;
11453;SDS011;5783;55.174;61.310;2023-05-16T02:16:38;8.43;;;7.13;;
11453;SDS011;5783;55.174;61.310;2023-05-16T02:19:08;7.80;;;6.47;;
11453;SDS011;5783;55.174;61.310;2023-05-16T02:21:37;8.23;;;6.87;;
11453;SDS011;5783;55.174;61.310;2023-05-16T02:24:07;7.90;;;7.00;;
11453;SDS011;5783;55.174;61.310;2023-05-16T02:26:36;8.57;;;6.87;;
11453;SDS011;5783;55.174;61.310;2023-05-16T02:29:05;8.20;;;6.80;;
11453;SDS011;5783;55.174;61.310;2023-05-16T02:31:34;8.43;;;7.37;;
11453;SDS011;5783;55.174;61.310;2023-05-16T02:34:04;8.00;;;6.80;;
11453;SDS011;5783;55.174;61.310;2023-05-16T02:36:33;8.10;;;7.00;;
11453;SDS011;5783;55.174;61.310;2023-05-16T02:39:02;7.77;;;6.97;;
11453;SDS011;5783;55.174;61.310;2023-05-16T02:41:33;10.07;;;7.70;;
11453;SDS011;5783;55.174;61.310;2023-05-16T02:44:02;8.77;;;7.07;;
11453;SDS011;5783;55.174;61.310;2023-05-16T02:46:32;10.17;;;7.30;;
11453;SDS011;5783;55.174;61.310;2023-05-16T02:49:02;9.63;;;7.47;;
11453;SDS011;5783;55.174;61.310;2023-05-16T02:51:31;8.60;;;6.70;;
11453;SDS011;5783;55.174;61.310;2023-05-16T02:54:00;11.50;;;7.67;;
11453;SDS011;5783;55.174;61.310;2023-05-16T02:56:29;9.40;;;7.37;;
11453;SDS011;5783;55.174;61.310;2023-05-16T02:58:58;10.10;;;7.63;;
11453;SDS011;5783;55.174;61.310;2023-05-16T03:01:29;9.50;;;7.93;;
11453;SDS011;5783;55.174;61.310;2023-05-16T03:03:58;9.10;;;7.83;;
11453;SDS011;5783;55.174;61.310;2023-05-16T03:06:27;10.60;;;8.50;;
11453;SDS011;5783;55.174;61.310;2023-05-16T03:08:56;12.07;;;8.43;;
11453;SDS011;5783;55.174;61.310;2023-05-16T03:11:25;9.63;;;8.33;;
11453;SDS011;5783;55.174;61.310;2023-05-16T03:13:55;11.63;;;8.13;;
11453;SDS011;5783;55.174;61.310;2023-05-16T03:16:24;11.93;;;9.00;;
11453;SDS011;5783;55.174;61.310;2023-05-16T03:18:54;11.57;;;9.07;;
11453;SDS011;5783;55.174;61.310;2023-05-16T03:21:23;11.20;;;8.77;;
11453;SDS011;5783;55.174;61.310;2023-05-16T03:23:52;11.00;;;8.50;;
11453;SDS011;5783;55.174;61.310;2023-05-16T03:26:21;13.50;;;8.77;;
11453;SDS011;5783;55.174;61.310;2023-05-16T03:28:50;10.13;;;8.33;;
11453;SDS011;5783;55.174;61.310;2023-05-16T03:31:20;13.03;;;9.47;;
11453;SDS011;5783;55.174;61.310;2023-05-16T03:33:49;13.33;;;9.70;;
11453;SDS011;5783;55.174;61.310;2023-05-16T03:36:20;12.43;;;9.47;;
11453;SDS011;5783;55.174;61.310;2023-05-16T03:38:49;12.37;;;9.53;;
11453;SDS011;5783;55.174;61.310;2023-05-16T03:41:18;12.23;;;9.70;;
11453;SDS011;5783;55.174;61.310;2023-05-16T03:43:47;12.77;;;9.47;;
11453;SDS011;5783;55.174;61.310;2023-05-16T03:46:16;12.37;;;10.17;;
11453;SDS011;5783;55.174;61.310;2023-05-16T03:48:45;13.93;;;10.27;;
11453;SDS011;5783;55.174;61.310;2023-05-16T03:51:14;13.63;;;10.33;;
11453;SDS011;5783;55.174;61.310;2023-05-16T03:53:44;13.97;;;9.80;;
11453;SDS011;5783;55.174;61.310;2023-05-16T03:56:13;12.40;;;10.37;;
11453;SDS011;5783;55.174;61.310;2023-05-16T03:58:42;13.67;;;10.43;;
11453;SDS011;5783;55.174;61.310;2023-05-16T04:01:11;14.80;;;10.57;;
11453;SDS011;5783;55.174;61.310;2023-05-16T04:03:40;15.30;;;10.73;;
11453;SDS011;5783;55.174;61.310;2023-05-16T04:06:09;13.70;;;10.80;;
11453;SDS011;5783;55.174;61.310;2023-05-16T04:08:39;14.23;;;10.97;;
11453;SDS011;5783;55.174;61.310;2023-05-16T04:11:09;13.50;;;10.83;;
11453;SDS011;5783;55.174;61.310;2023-05-16T04:13:38;16.63;;;11.30;;
11453;SDS011;5783;55.174;61.310;2023-05-16T04:16:08;15.40;;;12.17;;
11453;SDS011;5783;55.174;61.310;2023-05-16T04:18:37;16.63;;;11.40;;
11453;SDS011;5783;55.174;61.310;2023-05-16T04:21:06;16.63;;;11.27;;
11453;SDS011;5783;55.174;61.310;2023-05-16T04:23:37;16.03;;;11.07;;
11453;SDS011;5783;55.174;61.310;2023-05-16T04:26:06;14.93;;;10.97;;
11453;SDS011;5783;55.174;61.310;2023-05-16T04:28:36;15.03;;;10.60;;
11453;SDS011;5783;55.174;61.310;2023-05-16T04:31:06;16.13;;;10.90;;
11453;SDS011;5783;55.174;61.310;2023-05-16T04:33:36;14.90;;;10.93;;
11453;SDS011;5783;55.174;61.310;2023-05-16T04:36:05;17.03;;;10.47;;
11453;SDS011;5783;55.174;61.310;2023-05-16T04:38:34;13.80;;;10.60;;
11453;SDS011;5783;55.174;61.310;2023-05-16T04:41:03;17.57;;;11.23;;
11453;SDS011;5783;55.174;61.310;2023-05-16T04:43:32;15.37;;;10.67;;
11453;SDS011;5783;55.174;61.310;2023-05-16T04:46:01;17.13;;;10.50;;
11453;SDS011;5783;55.174;61.310;2023-05-16T04:48:32;17.67;;;11.13;;
11453;SDS011;5783;55.174;61.310;2023-05-16T04:51:02;23.00;;;14.93;;
11453;SDS011;5783;55.174;61.310;2023-05-16T04:53:31;22.33;;;14.53;;
11453;SDS011;5783;55.174;61.310;2023-05-16T04:56:01;18.90;;;14.33;;
11453;SDS011;5783;55.174;61.310;2023-05-16T04:58:30;18.73;;;13.23;;
11453;SDS011;5783;55.174;61.310;2023-05-16T05:00:59;17.30;;;12.97;;
11453;SDS011;5783;55.174;61.310;2023-05-16T05:03:29;18.17;;;13.07;;
11453;SDS011;5783;55.174;61.310;2023-05-16T05:05:59;19.77;;;12.97;;
11453;SDS011;5783;55.174;61.310;2023-05-16T05:08:28;15.80;;;11.40;;
11453;SDS011;5783;55.174;61.310;2023-05-16T05:10:57;13.37;;;9.37;;
11453;SDS011;5783;55.174;61.310;2023-05-16T05:13:26;14.87;;;9.77;;
11453;SDS011;5783;55.174;61.310;2023-05-16T05:15:57;11.77;;;9.17;;
11453;SDS011;5783;55.174;61.310;2023-05-16T05:18:28;12.70;;;10.07;;
11453;SDS011;5783;55.174;61.310;2023-05-16T05:20:58;15.53;;;9.33;;
11453;SDS011;5783;55.174;61.310;2023-05-16T05:23:27;15.90;;;10.63;;
11453;SDS011;5783;55.174;61.310;2023-05-16T05:25:57;15.73;;;9.57;;
11453;SDS011;5783;55.174;61.310;2023-05-16T05:28:27;15.43;;;8.90;;
11453;SDS011;5783;55.174;61.310;2023-05-16T05:30:56;11.77;;;8.00;;
11453;SDS011;5783;55.174;61.310;2023-05-16T05:33:25;11.37;;;9.00;;
11453;SDS011;5783;55.174;61.310;2023-05-16T05:35:55;9.93;;;7.97;;
11453;SDS011;5783;55.174;61.310;2023-05-16T05:38:24;11.93;;;8.03;;
11453;SDS011;5783;55.174;61.310;2023-05-16T05:40:53;11.37;;;6.70;;
11453;SDS011;5783;55.174;61.310;2023-05-16T05:43:23;8.70;;;5.33;;
11453;SDS011;5783;55.174;61.310;2023-05-16T05:45:52;7.37;;;4.57;;
11453;SDS011;5783;55.174;61.310;2023-05-16T05:48:21;7.97;;;4.30;;
11453;SDS011;5783;55.174;61.310;2023-05-16T05:50:50;7.87;;;4.57;;
11453;SDS011;5783;55.174;61.310;2023-05-16T05:53:19;8.70;;;4.70;;
11453;SDS011;5783;55.174;61.310;2023-05-16T05:55:48;8.63;;;4.13;;
11453;SDS011;5783;55.174;61.310;2023-05-16T05:58:18;4.53;;;3.57;;
11453;SDS011;5783;55.174;61.310;2023-05-16T06:00:49;4.40;;;3.37;;
11453;SDS011;5783;55.174;61.310;2023-05-16T06:03:18;6.10;;;3.50;;
11453;SDS011;5783;55.174;61.310;2023-05-16T06:05:47;6.93;;;3.50;;
11453;SDS011;5783;55.174;61.310;2023-05-16T06:08:17;5.23;;;2.93;;
11453;SDS011;5783;55.174;61.310;2023-05-16T06:10:46;5.63;;;2.90;;
11453;SDS011;5783;55.174;61.310;2023-05-16T06:13:15;6.90;;;3.13;;
11453;SDS011;5783;55.174;61.310;2023-05-16T06:15:48;5.40;;;3.00;;
11453;SDS011;5783;55.174;61.310;2023-05-16T06:18:34;5.00;;;3.00;;
11453;SDS011;5783;55.174;61.310;2023-05-16T06:21:04;6.77;;;3.00;;
11453;SDS011;5783;55.174;61.310;2023-05-16T06:23:33;3.03;;;2.67;;
11453;SDS011;5783;55.174;61.310;2023-05-16T06:26:02;3.83;;;2.83;;
11453;SDS011;5783;55.174;61.310;2023-05-16T06:28:31;3.47;;;2.80;;
11453;SDS011;5783;55.174;61.310;2023-05-16T06:31:01;3.90;;;3.07;;
11453;SDS011;5783;55.174;61.310;2023-05-16T06:33:30;6.30;;;3.00;;
11453;SDS011;5783;55.174;61.310;2023-05-16T06:35:59;5.23;;;3.20;;
11453;SDS011;5783;55.174;61.310;2023-05-16T06:38:28;4.17;;;2.53;;
11453;SDS011;5783;55.174;61.310;2023-05-16T06:40:57;5.17;;;2.67;;
11453;SDS011;5783;55.174;61.310;2023-05-16T06:43:26;4.50;;;2.70;;
11453;SDS011;5783;55.174;61.310;2023-05-16T06:45:55;4.30;;;2.63;;
11453;SDS011;5783;55.174;61.310;2023-05-16T06:48:25;3.93;;;2.80;;
11453;SDS011;5783;55.174;61.310;2023-05-16T06:50:54;4.30;;;2.50;;
11453;SDS011;5783;55.174;61.310;2023-05-16T06:53:23;5.20;;;2.37;;
11453;SDS011;5783;55.174;61.310;2023-05-16T06:55:53;3.93;;;2.70;;
11453;SDS011;5783;55.174;61.310;2023-05-16T06:58:22;4.67;;;2.80;;
11453;SDS011;5783;55.174;61.310;2023-05-16T07:00:52;4.23;;;2.60;;
11453;SDS011;5783;55.174;61.310;2023-05-16T07:03:21;3.77;;;2.77;;
11453;SDS011;5783;55.174;61.310;2023-05-16T07:05:50;4.13;;;2.80;;
11453;SDS011;5783;55.174;61.310;2023-05-16T07:08:20;3.67;;;2.30;;
11453;SDS011;5783;55.174;61.310;2023-05-16T07:10:49;4.00;;;2.50;;
11453;SDS011;5783;55.174;61.310;2023-05-16T07:13:18;2.80;;;2.50;;
11453;SDS011;5783;55.174;61.310;2023-05-16T07:15:48;3.00;;;2.47;;
11453;SDS011;5783;55.174;61.310;2023-05-16T07:18:17;3.80;;;2.50;;
11453;SDS011;5783;55.174;61.310;2023-05-16T07:20:48;2.60;;;2.37;;
11453;SDS011;5783;55.174;61.310;2023-05-16T07:23:17;4.00;;;2.37;;
11453;SDS011;5783;55.174;61.310;2023-05-16T07:25:47;3.57;;;2.50;;
11453;SDS011;5783;55.174;61.310;2023-05-16T07:28:16;4.53;;;2.37;;
11453;SDS011;5783;55.174;61.310;2023-05-16T07:30:46;3.30;;;2.70;;
11453;SDS011;5783;55.174;61.310;2023-05-16T07:33:16;3.23;;;2.30;;
11453;SDS011;5783;55.174;61.310;2023-05-16T07:35:45;2.70;;;2.30;;
11453;SDS011;5783;55.174;61.310;2023-05-16T07:38:14;3.00;;;2.00;;
11453;SDS011;5783;55.174;61.310;2023-05-16T07:40:44;3.70;;;2.53;;
11453;SDS011;5783;55.174;61.310;2023-05-16T07:43:13;3.90;;;2.17;;
11453;SDS011;5783;55.174;61.310;2023-05-16T07:45:42;3.27;;;2.33;;
11453;SDS011;5783;55.174;61.310;2023-05-16T07:48:11;3.00;;;2.23;;
11453;SDS011;5783;55.174;61.310;2023-05-16T07:50:41;5.23;;;2.70;;
11453;SDS011;5783;55.174;61.310;2023-05-16T07:53:11;3.97;;;2.30;;
11453;SDS011;5783;55.174;61.310;2023-05-16T07:55:40;3.57;;;2.10;;
11453;SDS011;5783;55.174;61.310;2023-05-16T07:58:09;2.40;;;2.20;;
11453;SDS011;5783;55.174;61.310;2023-05-16T08:00:39;3.07;;;2.37;;
11453;SDS011;5783;55.174;61.310;2023-05-16T08:03:08;2.50;;;2.07;;
11453;SDS011;5783;55.174;61.310;2023-05-16T08:05:37;3.20;;;2.07;;
11453;SDS011;5783;55.174;61.310;2023-05-16T08:08:07;5.23;;;2.20;;
11453;SDS011;5783;55.174;61.310;2023-05-16T08:10:36;2.83;;;2.10;;
11453;SDS011;5783;55.174;61.310;2023-05-16T08:13:05;2.73;;;2.10;;
11453;SDS011;5783;55.174;61.310;2023-05-16T08:15:34;3.20;;;2.10;;
11453;SDS011;5783;55.174;61.310;2023-05-16T08:18:04;2.93;;;2.20;;
11453;SDS011;5783;55.174;61.310;2023-05-16T08:20:36;3.13;;;2.10;;
11453;SDS011;5783;55.174;61.310;2023-05-16T08:23:06;2.77;;;2.27;;
11453;SDS011;5783;55.174;61.310;2023-05-16T08:25:36;2.70;;;2.00;;
11453;SDS011;5783;55.174;61.310;2023-05-16T08:28:05;2.80;;;2.00;;
11453;SDS011;5783;55.174;61.310;2023-05-16T08:30:34;3.60;;;2.17;;
11453;SDS011;5783;55.174;61.310;2023-05-16T08:33:04;2.53;;;2.10;;
11453;SDS011;5783;55.174;61.310;2023-05-16T08:35:35;3.37;;;2.10;;
11453;SDS011;5783;55.174;61.310;2023-05-16T08:38:04;2.30;;;2.10;;
11453;SDS011;5783;55.174;61.310;2023-05-16T08:40:33;3.27;;;2.30;;
11453;SDS011;5783;55.174;61.310;2023-05-16T08:43:02;2.93;;;2.17;;
11453;SDS011;5783;55.174;61.310;2023-05-16T08:45:32;2.80;;;2.20;;
11453;SDS011;5783;55.174;61.310;2023-05-16T08:48:02;3.13;;;2.33;;
11453;SDS011;5783;55.174;61.310;2023-05-16T08:50:34;2.93;;;2.10;;
11453;SDS011;5783;55.174;61.310;2023-05-16T08:53:04;4.50;;;2.40;;
11453;SDS011;5783;55.174;61.310;2023-05-16T08:55:35;3.30;;;2.20;;
11453;SDS011;5783;55.174;61.310;2023-05-16T08:58:06;3.90;;;2.27;;
11453;SDS011;5783;55.174;61.310;2023-05-16T09:00:36;3.20;;;2.40;;
11453;SDS011;5783;55.174;61.310;2023-05-16T09:03:06;6.33;;;2.67;;
11453;SDS011;5783;55.174;61.310;2023-05-16T09:05:36;3.37;;;2.60;;
11453;SDS011;5783;55.174;61.310;2023-05-16T09:08:06;4.30;;;2.37;;
11453;SDS011;5783;55.174;61.310;2023-05-16T09:10:36;4.27;;;2.60;;
11453;SDS011;5783;55.174;61.310;2023-05-16T09:13:05;3.80;;;2.47;;
11453;SDS011;5783;55.174;61.310;2023-05-16T09:15:34;3.27;;;2.57;;
11453;SDS011;5783;55.174;61.310;2023-05-16T09:18:03;3.47;;;2.63;;
11453;SDS011;5783;55.174;61.310;2023-05-16T09:20:34;6.60;;;2.57;;
11453;SDS011;5783;55.174;61.310;2023-05-16T09:23:05;3.40;;;2.53;;
11453;SDS011;5783;55.174;61.310;2023-05-16T09:25:34;3.10;;;2.50;;
11453;SDS011;5783;55.174;61.310;2023-05-16T09:28:03;5.60;;;2.40;;
11453;SDS011;5783;55.174;61.310;2023-05-16T09:30:33;4.67;;;2.90;;
11453;SDS011;5783;55.174;61.310;2023-05-16T09:33:07;3.90;;;2.47;;
11453;SDS011;5783;55.174;61.310;2023-05-16T09:35:36;5.10;;;2.50;;
11453;SDS011;5783;55.174;61.310;2023-05-16T09:38:11;3.63;;;2.50;;
11453;SDS011;5783;55.174;61.310;2023-05-16T09:40:56;3.17;;;2.57;;
11453;SDS011;5783;55.174;61.310;2023-05-16T09:43:26;4.87;;;2.60;;
11453;SDS011;5783;55.174;61.310;2023-05-16T09:45:57;6.20;;;2.47;;
11453;SDS011;5783;55.174;61.310;2023-05-16T09:48:26;4.33;;;2.80;;
11453;SDS011;5783;55.174;61.310;2023-05-16T09:50:56;5.87;;;2.70;;
11453;SDS011;5783;55.174;61.310;2023-05-16T09:53:30;3.87;;;2.90;;
11453;SDS011;5783;55.174;61.310;2023-05-16T09:58:33;4.37;;;2.60;;
11453;SDS011;5783;55.174;61.310;2023-05-16T10:01:04;3.43;;;2.50;;
11453;SDS011;5783;55.174;61.310;2023-05-16T10:03:35;4.00;;;2.50;;
11453;SDS011;5783;55.174;61.310;2023-05-16T10:06:08;6.67;;;2.77;;
11453;SDS011;5783;55.174;61.310;2023-05-16T10:08:41;4.10;;;2.50;;
11453;SDS011;5783;55.174;61.310;2023-05-16T10:11:11;2.80;;;2.30;;
11453;SDS011;5783;55.174;61.310;2023-05-16T10:13:43;5.03;;;2.70;;
11453;SDS011;5783;55.174;61.310;2023-05-16T10:16:15;3.43;;;2.57;;
11453;SDS011;5783;55.174;61.310;2023-05-16T10:18:49;4.93;;;2.80;;
11453;SDS011;5783;55.174;61.310;2023-05-16T10:21:19;5.13;;;2.93;;
11453;SDS011;5783;55.174;61.310;2023-05-16T10:23:50;3.97;;;2.80;;
11453;SDS011;5783;55.174;61.310;2023-05-16T10:26:22;5.37;;;2.77;;
11453;SDS011;5783;55.174;61.310;2023-05-16T10:28:53;3.63;;;2.87;;
11453;SDS011;5783;55.174;61.310;2023-05-16T10:31:22;5.90;;;2.80;;
11453;SDS011;5783;55.174;61.310;2023-05-16T10:33:52;5.47;;;3.03;;
11453;SDS011;5783;55.174;61.310;2023-05-16T10:36:22;4.20;;;2.67;;
11453;SDS011;5783;55.174;61.310;2023-05-16T10:38:52;4.50;;;2.80;;
11453;SDS011;5783;55.174;61.310;2023-05-16T10:41:22;4.23;;;3.00;;
11453;SDS011;5783;55.174;61.310;2023-05-16T10:46:42;15.33;;;2.50;;
11453;SDS011;5783;55.174;61.310;2023-05-16T10:54:50;4.27;;;2.70;;
11453;SDS011;5783;55.174;61.310;2023-05-16T10:57:22;5.70;;;2.93;;
11453;SDS011;5783;55.174;61.310;2023-05-16T10:59:51;3.70;;;2.60;;
11453;SDS011;5783;55.174;61.310;2023-05-16T11:02:52;4.43;;;2.53;;
11453;SDS011;5783;55.174;61.310;2023-05-16T11:04:55;3.43;;;2.50;;
11453;SDS011;5783;55.174;61.310;2023-05-16T11:10:16;6.23;;;3.17;;
11453;SDS011;5783;55.174;61.310;2023-05-16T11:12:47;5.00;;;2.83;;
11453;SDS011;5783;55.174;61.310;2023-05-16T11:15:20;4.60;;;2.90;;
11453;SDS011;5783;55.174;61.310;2023-05-16T11:21:02;4.50;;;2.90;;
11453;SDS011;5783;55.174;61.310;2023-05-16T11:23:30;4.90;;;2.70;;
11453;SDS011;5783;55.174;61.310;2023-05-16T11:26:00;5.97;;;2.80;;
11453;SDS011;5783;55.174;61.310;2023-05-16T11:28:31;4.50;;;2.93;;
11453;SDS011;5783;55.174;61.310;2023-05-16T11:31:00;4.27;;;3.00;;
11453;SDS011;5783;55.174;61.310;2023-05-16T11:33:30;6.70;;;2.87;;
11453;SDS011;5783;55.174;61.310;2023-05-16T11:38:52;3.77;;;2.67;;
11453;SDS011;5783;55.174;61.310;2023-05-16T11:41:21;6.77;;;3.13;;
11453;SDS011;5783;55.174;61.310;2023-05-16T11:43:51;6.80;;;2.97;;
11453;SDS011;5783;55.174;61.310;2023-05-16T11:46:20;6.00;;;3.20;;
11453;SDS011;5783;55.174;61.310;2023-05-16T11:48:50;4.03;;;2.90;;
11453;SDS011;5783;55.174;61.310;2023-05-16T11:51:19;4.70;;;3.23;;
11453;SDS011;5783;55.174;61.310;2023-05-16T11:53:49;8.90;;;3.80;;
11453;SDS011;5783;55.174;61.310;2023-05-16T11:56:19;7.90;;;3.47;;
11453;SDS011;5783;55.174;61.310;2023-05-16T11:58:49;6.03;;;3.40;;
11453;SDS011;5783;55.174;61.310;2023-05-16T12:01:18;6.10;;;3.50;;
11453;SDS011;5783;55.174;61.310;2023-05-16T12:06:39;5.03;;;3.77;;
11453;SDS011;5783;55.174;61.310;2023-05-16T12:09:11;5.53;;;3.50;;
11453;SDS011;5783;55.174;61.310;2023-05-16T12:11:42;7.00;;;4.10;;
11453;SDS011;5783;55.174;61.310;2023-05-16T12:14:11;6.47;;;4.03;;
11453;SDS011;5783;55.174;61.310;2023-05-16T12:16:41;5.70;;;4.40;;
11453;SDS011;5783;55.174;61.310;2023-05-16T12:19:11;6.40;;;3.93;;
11453;SDS011;5783;55.174;61.310;2023-05-16T12:21:40;9.37;;;4.27;;
11453;SDS011;5783;55.174;61.310;2023-05-16T12:24:10;8.07;;;4.43;;
11453;SDS011;5783;55.174;61.310;2023-05-16T12:26:40;6.47;;;4.50;;
11453;SDS011;5783;55.174;61.310;2023-05-16T12:29:09;8.60;;;4.40;;
11453;SDS011;5783;55.174;61.310;2023-05-16T12:31:39;8.50;;;4.97;;
11453;SDS011;5783;55.174;61.310;2023-05-16T12:36:57;10.90;;;5.30;;
11453;SDS011;5783;55.174;61.310;2023-05-16T12:39:26;8.00;;;4.77;;
11453;SDS011;5783;55.174;61.310;2023-05-16T12:41:59;10.57;;;5.40;;
11453;SDS011;5783;55.174;61.310;2023-05-16T12:44:32;11.10;;;6.10;;
11453;SDS011;5783;55.174;61.310;2023-05-16T12:47:01;9.77;;;6.13;;
11453;SDS011;5783;55.174;61.310;2023-05-16T12:49:31;12.23;;;6.97;;
11453;SDS011;5783;55.174;61.310;2023-05-16T12:52:01;11.40;;;6.30;;
11453;SDS011;5783;55.174;61.310;2023-05-16T12:54:30;10.87;;;6.27;;
11453;SDS011;5783;55.174;61.310;2023-05-16T12:56:59;17.73;;;7.07;;
11453;SDS011;5783;55.174;61.310;2023-05-16T12:59:29;13.60;;;7.40;;
11453;SDS011;5783;55.174;61.310;2023-05-16T13:01:59;12.97;;;7.50;;
11453;SDS011;5783;55.174;61.310;2023-05-16T13:04:28;13.13;;;7.77;;
11453;SDS011;5783;55.174;61.310;2023-05-16T13:06:58;12.70;;;7.80;;
11453;SDS011;5783;55.174;61.310;2023-05-16T13:09:46;13.27;;;7.80;;
11453;SDS011;5783;55.174;61.310;2023-05-16T13:12:15;17.23;;;8.10;;
11453;SDS011;5783;55.174;61.310;2023-05-16T13:14:47;15.17;;;8.27;;
11453;SDS011;5783;55.174;61.310;2023-05-16T13:17:16;13.73;;;8.23;;
11453;SDS011;5783;55.174;61.310;2023-05-16T13:19:45;13.23;;;8.40;;
11453;SDS011;5783;55.174;61.310;2023-05-16T13:22:14;12.90;;;9.00;;
11453;SDS011;5783;55.174;61.310;2023-05-16T13:24:44;11.70;;;8.27;;
11453;SDS011;5783;55.174;61.310;2023-05-16T13:27:15;13.70;;;8.53;;
11453;SDS011;5783;55.174;61.310;2023-05-16T13:29:44;14.80;;;8.50;;
11453;SDS011;5783;55.174;61.310;2023-05-16T13:32:13;12.30;;;8.20;;
11453;SDS011;5783;55.174;61.310;2023-05-16T13:34:43;14.10;;;7.90;;
11453;SDS011;5783;55.174;61.310;2023-05-16T13:37:12;15.63;;;8.33;;
11453;SDS011;5783;55.174;61.310;2023-05-16T13:39:41;10.93;;;7.60;;
11453;SDS011;5783;55.174;61.310;2023-05-16T13:42:11;11.53;;;7.50;;
11453;SDS011;5783;55.174;61.310;2023-05-16T13:44:40;13.53;;;8.10;;
11453;SDS011;5783;55.174;61.310;2023-05-16T13:47:09;15.53;;;7.83;;
11453;SDS011;5783;55.174;61.310;2023-05-16T13:49:39;15.83;;;7.80;;
11453;SDS011;5783;55.174;61.310;2023-05-16T13:52:08;9.53;;;7.20;;
11453;SDS011;5783;55.174;61.310;2023-05-16T13:54:37;11.90;;;7.37;;
11453;SDS011;5783;55.174;61.310;2023-05-16T13:57:06;13.93;;;7.53;;
11453;SDS011;5783;55.174;61.310;2023-05-16T13:59:38;13.23;;;7.50;;
11453;SDS011;5783;55.174;61.310;2023-05-16T14:02:07;13.17;;;8.17;;
11453;SDS011;5783;55.174;61.310;2023-05-16T14:04:36;12.57;;;7.43;;
11453;SDS011;5783;55.174;61.310;2023-05-16T14:07:05;10.57;;;7.27;;
11453;SDS011;5783;55.174;61.310;2023-05-16T14:09:34;11.63;;;6.87;;
11453;SDS011;5783;55.174;61.310;2023-05-16T14:12:04;8.83;;;7.00;;
11453;SDS011;5783;55.174;61.310;2023-05-16T14:14:34;10.83;;;7.37;;
11453;SDS011;5783;55.174;61.310;2023-05-16T14:17:03;10.83;;;7.00;;
11453;SDS011;5783;55.174;61.310;2023-05-16T14:19:33;11.73;;;7.00;;
11453;SDS011;5783;55.174;61.310;2023-05-16T14:22:02;10.03;;;6.63;;
11453;SDS011;5783;55.174;61.310;2023-05-16T14:24:31;10.37;;;6.73;;
11453;SDS011;5783;55.174;61.310;2023-05-16T14:27:00;11.07;;;6.70;;
11453;SDS011;5783;55.174;61.310;2023-05-16T14:29:29;14.10;;;6.70;;
11453;SDS011;5783;55.174;61.310;2023-05-16T14:31:58;13.27;;;7.17;;
11453;SDS011;5783;55.174;61.310;2023-05-16T14:34:28;11.20;;;7.30;;
11453;SDS011;5783;55.174;61.310;2023-05-16T14:36:57;11.83;;;7.13;;
11453;SDS011;5783;55.174;61.310;2023-05-16T14:39:27;10.43;;;7.47;;
11453;SDS011;5783;55.174;61.310;2023-05-16T14:41:56;10.83;;;6.93;;
11453;SDS011;5783;55.174;61.310;2023-05-16T14:44:25;10.50;;;7.03;;
11453;SDS011;5783;55.174;61.310;2023-05-16T14:46:54;12.77;;;7.63;;
11453;SDS011;5783;55.174;61.310;2023-05-16T14:49:23;13.07;;;8.60;;
11453;SDS011;5783;55.174;61.310;2023-05-16T14:51:52;16.80;;;9.63;;
11453;SDS011;5783;55.174;61.310;2023-05-16T14:54:22;17.10;;;9.87;;
11453;SDS011;5783;55.174;61.310;2023-05-16T14:56:51;14.47;;;9.13;;
11453;SDS011;5783;55.174;61.310;2023-05-16T14:59:20;13.83;;;9.83;;
11453;SDS011;5783;55.174;61.310;2023-05-16T15:01:49;16.50;;;10.67;;
11453;SDS011;5783;55.174;61.310;2023-05-16T15:04:18;14.53;;;9.60;;
11453;SDS011;5783;55.174;61.310;2023-05-16T15:06:48;16.33;;;10.50;;
11453;SDS011;5783;55.174;61.310;2023-05-16T15:09:17;14.23;;;10.43;;
11453;SDS011;5783;55.174;61.310;2023-05-16T15:11:46;14.70;;;9.97;;
11453;SDS011;5783;55.174;61.310;2023-05-16T15:14:15;12.17;;;9.73;;
11453;SDS011;5783;55.174;61.310;2023-05-16T15:16:44;17.37;;;10.07;;
11453;SDS011;5783;55.174;61.310;2023-05-16T15:19:13;15.20;;;9.57;;
11453;SDS011;5783;55.174;61.310;2023-05-16T15:21:42;12.37;;;9.67;;
11453;SDS011;5783;55.174;61.310;2023-05-16T15:24:12;11.63;;;9.30;;
11453;SDS011;5783;55.174;61.310;2023-05-16T15:26:41;13.40;;;9.90;;
11453;SDS011;5783;55.174;61.310;2023-05-16T15:29:11;13.13;;;9.70;;
11453;SDS011;5783;55.174;61.310;2023-05-16T15:31:40;13.57;;;9.90;;
11453;SDS011;5783;55.174;61.310;2023-05-16T15:34:09;13.37;;;9.87;;
11453;SDS011;5783;55.174;61.310;2023-05-16T15:36:38;12.77;;;9.60;;
11453;SDS011;5783;55.174;61.310;2023-05-16T15:39:07;15.30;;;9.93;;
11453;SDS011;5783;55.174;61.310;2023-05-16T15:41:37;12.43;;;9.83;;